Terminal Aerodrome Forecast
Issued by NWS St Louis, MO

Home | Current Version | Previous Version | Graphics & Text | Print | Product List | Glossary On
Versions: 1 2 3 4 5 6 7 8 9 10 11 12 13 14 15 16 17 18 19 20 21 22 23 24 25 26 27 28 29 30
000
FTUS43 KLSX 231400 AAA
TAFSTL
TAF AMD
KSTL 231452Z 2315/2418 34006KT P6SM SKC
     FM240100 VRB04KT P6SM SKC
     FM240900 11006KT P6SM BKN100
     FM241500 14011KT P6SM BKN050=

USA.gov is the U.S. government's official web portal to all federal, state and local government web resources and services.